sensor_id;sensor_type;location;lat;lon;timestamp;P1;durP1;ratioP1;P2;durP2;ratioP2
47896;SDS011;39629;51.400;5.494;2022-12-11T00:04:57;34.47;;;10.25;;
47896;SDS011;39629;51.400;5.494;2022-12-11T00:10:00;35.70;;;10.75;;
47896;SDS011;39629;51.400;5.494;2022-12-11T00:15:03;36.47;;;9.57;;
47896;SDS011;39629;51.400;5.494;2022-12-11T00:20:05;33.85;;;9.48;;
47896;SDS011;39629;51.400;5.494;2022-12-11T00:25:09;35.28;;;9.75;;
47896;SDS011;39629;51.400;5.494;2022-12-11T00:30:11;30.55;;;9.77;;
47896;SDS011;39629;51.400;5.494;2022-12-11T00:35:13;28.48;;;9.38;;
47896;SDS011;39629;51.400;5.494;2022-12-11T00:40:16;30.05;;;9.85;;
47896;SDS011;39629;51.400;5.494;2022-12-11T00:45:18;29.52;;;9.73;;
47896;SDS011;39629;51.400;5.494;2022-12-11T00:50:19;29.13;;;9.73;;
47896;SDS011;39629;51.400;5.494;2022-12-11T00:55:23;31.95;;;10.30;;
47896;SDS011;39629;51.400;5.494;2022-12-11T01:00:27;31.70;;;10.52;;
47896;SDS011;39629;51.400;5.494;2022-12-11T01:05:28;29.75;;;9.38;;
47896;SDS011;39629;51.400;5.494;2022-12-11T01:10:32;32.97;;;10.10;;
47896;SDS011;39629;51.400;5.494;2022-12-11T01:15:38;29.27;;;9.37;;
47896;SDS011;39629;51.400;5.494;2022-12-11T01:20:41;31.65;;;10.50;;
47896;SDS011;39629;51.400;5.494;2022-12-11T01:25:45;30.08;;;9.02;;
47896;SDS011;39629;51.400;5.494;2022-12-11T01:30:46;33.25;;;9.60;;
47896;SDS011;39629;51.400;5.494;2022-12-11T01:35:48;32.17;;;9.82;;
47896;SDS011;39629;51.400;5.494;2022-12-11T01:40:51;30.15;;;9.90;;
47896;SDS011;39629;51.400;5.494;2022-12-11T01:45:53;26.75;;;9.30;;
47896;SDS011;39629;51.400;5.494;2022-12-11T01:50:55;26.80;;;9.23;;
47896;SDS011;39629;51.400;5.494;2022-12-11T01:56:00;29.20;;;10.13;;
47896;SDS011;39629;51.400;5.494;2022-12-11T02:01:03;25.77;;;9.07;;
47896;SDS011;39629;51.400;5.494;2022-12-11T02:06:05;26.75;;;9.05;;
47896;SDS011;39629;51.400;5.494;2022-12-11T02:11:09;22.92;;;8.00;;
47896;SDS011;39629;51.400;5.494;2022-12-11T02:16:18;25.95;;;9.35;;
47896;SDS011;39629;51.400;5.494;2022-12-11T02:21:25;23.77;;;7.18;;
47896;SDS011;39629;51.400;5.494;2022-12-11T02:26:42;25.88;;;9.02;;
47896;SDS011;39629;51.400;5.494;2022-12-11T02:31:57;26.00;;;7.97;;
47896;SDS011;39629;51.400;5.494;2022-12-11T02:37:04;26.23;;;8.38;;
47896;SDS011;39629;51.400;5.494;2022-12-11T02:42:10;21.08;;;7.95;;
47896;SDS011;39629;51.400;5.494;2022-12-11T02:47:15;22.60;;;8.13;;
47896;SDS011;39629;51.400;5.494;2022-12-11T02:52:19;21.90;;;7.25;;
47896;SDS011;39629;51.400;5.494;2022-12-11T03:02:30;23.20;;;7.95;;
47896;SDS011;39629;51.400;5.494;2022-12-11T03:07:33;20.73;;;7.82;;
47896;SDS011;39629;51.400;5.494;2022-12-11T03:12:37;21.30;;;8.23;;
47896;SDS011;39629;51.400;5.494;2022-12-11T03:17:46;22.10;;;7.38;;
47896;SDS011;39629;51.400;5.494;2022-12-11T03:22:56;21.63;;;7.50;;
47896;SDS011;39629;51.400;5.494;2022-12-11T03:28:04;18.70;;;7.68;;
47896;SDS011;39629;51.400;5.494;2022-12-11T03:33:14;20.08;;;7.55;;
47896;SDS011;39629;51.400;5.494;2022-12-11T03:38:22;18.52;;;6.93;;
47896;SDS011;39629;51.400;5.494;2022-12-11T03:43:28;18.58;;;7.05;;
47896;SDS011;39629;51.400;5.494;2022-12-11T03:48:34;19.88;;;7.60;;
47896;SDS011;39629;51.400;5.494;2022-12-11T03:53:40;16.48;;;6.38;;
47896;SDS011;39629;51.400;5.494;2022-12-11T03:58:44;16.60;;;6.97;;
47896;SDS011;39629;51.400;5.494;2022-12-11T04:03:47;20.30;;;7.43;;
47896;SDS011;39629;51.400;5.494;2022-12-11T04:08:48;15.55;;;6.25;;
47896;SDS011;39629;51.400;5.494;2022-12-11T04:13:50;17.42;;;6.80;;
47896;SDS011;39629;51.400;5.494;2022-12-11T04:19:07;17.40;;;6.97;;
47896;SDS011;39629;51.400;5.494;2022-12-11T04:24:27;13.18;;;5.65;;
47896;SDS011;39629;51.400;5.494;2022-12-11T04:29:28;14.32;;;6.20;;
47896;SDS011;39629;51.400;5.494;2022-12-11T04:34:31;14.65;;;6.47;;
47896;SDS011;39629;51.400;5.494;2022-12-11T04:39:33;15.20;;;6.03;;
47896;SDS011;39629;51.400;5.494;2022-12-11T04:44:34;14.20;;;5.95;;
47896;SDS011;39629;51.400;5.494;2022-12-11T04:49:37;14.15;;;5.38;;
47896;SDS011;39629;51.400;5.494;2022-12-11T04:54:39;16.55;;;5.85;;
47896;SDS011;39629;51.400;5.494;2022-12-11T04:59:41;15.07;;;5.82;;
47896;SDS011;39629;51.400;5.494;2022-12-11T05:04:44;12.57;;;5.40;;
47896;SDS011;39629;51.400;5.494;2022-12-11T05:09:45;13.57;;;5.40;;
47896;SDS011;39629;51.400;5.494;2022-12-11T05:14:49;13.68;;;5.57;;
47896;SDS011;39629;51.400;5.494;2022-12-11T05:24:54;11.98;;;5.50;;
47896;SDS011;39629;51.400;5.494;2022-12-11T05:29:56;12.38;;;5.45;;
47896;SDS011;39629;51.400;5.494;2022-12-11T05:34:59;13.13;;;5.50;;
47896;SDS011;39629;51.400;5.494;2022-12-11T05:40:02;12.75;;;5.22;;
47896;SDS011;39629;51.400;5.494;2022-12-11T05:45:05;12.83;;;5.77;;
47896;SDS011;39629;51.400;5.494;2022-12-11T05:50:09;13.45;;;5.60;;
47896;SDS011;39629;51.400;5.494;2022-12-11T05:55:11;14.00;;;5.75;;
47896;SDS011;39629;51.400;5.494;2022-12-11T06:00:12;12.00;;;5.63;;
47896;SDS011;39629;51.400;5.494;2022-12-11T06:05:15;12.82;;;5.65;;
47896;SDS011;39629;51.400;5.494;2022-12-11T06:10:17;15.63;;;5.90;;
47896;SDS011;39629;51.400;5.494;2022-12-11T06:15:19;14.63;;;6.10;;
47896;SDS011;39629;51.400;5.494;2022-12-11T06:20:22;12.23;;;5.32;;
47896;SDS011;39629;51.400;5.494;2022-12-11T06:25:24;12.02;;;5.43;;
47896;SDS011;39629;51.400;5.494;2022-12-11T06:30:25;14.55;;;5.38;;
47896;SDS011;39629;51.400;5.494;2022-12-11T06:35:28;12.95;;;4.80;;
47896;SDS011;39629;51.400;5.494;2022-12-11T06:40:30;15.75;;;6.45;;
47896;SDS011;39629;51.400;5.494;2022-12-11T06:45:31;14.50;;;6.35;;
47896;SDS011;39629;51.400;5.494;2022-12-11T06:50:35;14.43;;;5.88;;
47896;SDS011;39629;51.400;5.494;2022-12-11T06:55:38;16.10;;;6.03;;
47896;SDS011;39629;51.400;5.494;2022-12-11T07:00:40;16.30;;;6.40;;
47896;SDS011;39629;51.400;5.494;2022-12-11T07:05:43;16.42;;;6.38;;
47896;SDS011;39629;51.400;5.494;2022-12-11T07:10:45;15.98;;;5.90;;
47896;SDS011;39629;51.400;5.494;2022-12-11T07:15:46;13.23;;;5.53;;
47896;SDS011;39629;51.400;5.494;2022-12-11T07:20:49;16.73;;;6.97;;
47896;SDS011;39629;51.400;5.494;2022-12-11T07:25:51;17.17;;;7.35;;
47896;SDS011;39629;51.400;5.494;2022-12-11T07:30:52;17.25;;;6.43;;
47896;SDS011;39629;51.400;5.494;2022-12-11T07:35:58;15.57;;;6.18;;
47896;SDS011;39629;51.400;5.494;2022-12-11T07:41:01;15.98;;;6.32;;
47896;SDS011;39629;51.400;5.494;2022-12-11T07:46:05;16.55;;;7.15;;
47896;SDS011;39629;51.400;5.494;2022-12-11T07:51:12;15.10;;;6.60;;
47896;SDS011;39629;51.400;5.494;2022-12-11T07:56:17;17.10;;;6.38;;
47896;SDS011;39629;51.400;5.494;2022-12-11T08:01:20;14.25;;;6.25;;
47896;SDS011;39629;51.400;5.494;2022-12-11T08:06:25;18.97;;;6.30;;
47896;SDS011;39629;51.400;5.494;2022-12-11T08:11:29;15.98;;;6.15;;
47896;SDS011;39629;51.400;5.494;2022-12-11T08:16:31;17.15;;;6.85;;
47896;SDS011;39629;51.400;5.494;2022-12-11T08:21:34;11.25;;;4.35;;
47896;SDS011;39629;51.400;5.494;2022-12-11T08:26:36;20.33;;;6.68;;
47896;SDS011;39629;51.400;5.494;2022-12-11T08:31:37;16.80;;;6.60;;
47896;SDS011;39629;51.400;5.494;2022-12-11T08:36:41;14.02;;;6.18;;
47896;SDS011;39629;51.400;5.494;2022-12-11T08:41:43;16.77;;;6.87;;
47896;SDS011;39629;51.400;5.494;2022-12-11T08:46:44;16.45;;;6.25;;
47896;SDS011;39629;51.400;5.494;2022-12-11T08:51:48;17.33;;;6.88;;
47896;SDS011;39629;51.400;5.494;2022-12-11T08:56:50;17.30;;;6.65;;
47896;SDS011;39629;51.400;5.494;2022-12-11T09:01:53;16.90;;;6.03;;
47896;SDS011;39629;51.400;5.494;2022-12-11T09:06:56;19.08;;;6.45;;
47896;SDS011;39629;51.400;5.494;2022-12-11T09:11:58;14.18;;;5.32;;
47896;SDS011;39629;51.400;5.494;2022-12-11T09:17:00;21.45;;;7.40;;
47896;SDS011;39629;51.400;5.494;2022-12-11T09:22:05;11.23;;;5.03;;
47896;SDS011;39629;51.400;5.494;2022-12-11T09:27:10;14.63;;;5.88;;
47896;SDS011;39629;51.400;5.494;2022-12-11T09:32:12;17.52;;;6.43;;
47896;SDS011;39629;51.400;5.494;2022-12-11T09:37:15;19.08;;;6.63;;
47896;SDS011;39629;51.400;5.494;2022-12-11T09:42:17;13.25;;;5.45;;
47896;SDS011;39629;51.400;5.494;2022-12-11T09:47:26;14.88;;;5.95;;
47896;SDS011;39629;51.400;5.494;2022-12-11T09:52:36;14.07;;;5.85;;
47896;SDS011;39629;51.400;5.494;2022-12-11T09:57:43;18.98;;;6.60;;
47896;SDS011;39629;51.400;5.494;2022-12-11T10:03:01;14.07;;;5.97;;
47896;SDS011;39629;51.400;5.494;2022-12-11T10:08:27;13.48;;;5.10;;
47896;SDS011;39629;51.400;5.494;2022-12-11T10:13:34;15.68;;;6.03;;
47896;SDS011;39629;51.400;5.494;2022-12-11T10:18:46;14.25;;;5.50;;
47896;SDS011;39629;51.400;5.494;2022-12-11T10:23:51;18.25;;;6.38;;
47896;SDS011;39629;51.400;5.494;2022-12-11T10:28:56;15.02;;;6.57;;
47896;SDS011;39629;51.400;5.494;2022-12-11T10:34:01;14.30;;;5.82;;
47896;SDS011;39629;51.400;5.494;2022-12-11T10:39:10;14.00;;;5.43;;
47896;SDS011;39629;51.400;5.494;2022-12-11T10:44:15;12.35;;;5.15;;
47896;SDS011;39629;51.400;5.494;2022-12-11T10:49:22;15.47;;;6.03;;
47896;SDS011;39629;51.400;5.494;2022-12-11T10:54:29;14.95;;;5.68;;
47896;SDS011;39629;51.400;5.494;2022-12-11T10:59:35;15.43;;;5.85;;
47896;SDS011;39629;51.400;5.494;2022-12-11T11:04:40;18.30;;;6.22;;
47896;SDS011;39629;51.400;5.494;2022-12-11T11:09:45;14.00;;;5.40;;
47896;SDS011;39629;51.400;5.494;2022-12-11T11:14:57;15.88;;;5.40;;
47896;SDS011;39629;51.400;5.494;2022-12-11T11:20:00;14.68;;;5.68;;
47896;SDS011;39629;51.400;5.494;2022-12-11T11:25:15;17.20;;;5.53;;
47896;SDS011;39629;51.400;5.494;2022-12-11T11:30:21;16.13;;;5.90;;
47896;SDS011;39629;51.400;5.494;2022-12-11T11:35:25;13.30;;;5.40;;
47896;SDS011;39629;51.400;5.494;2022-12-11T11:40:30;14.75;;;5.40;;
47896;SDS011;39629;51.400;5.494;2022-12-11T11:45:38;13.75;;;5.38;;
47896;SDS011;39629;51.400;5.494;2022-12-11T11:50:44;14.00;;;5.55;;
47896;SDS011;39629;51.400;5.494;2022-12-11T11:55:52;13.77;;;5.60;;
47896;SDS011;39629;51.400;5.494;2022-12-11T12:00:57;8.68;;;3.83;;
47896;SDS011;39629;51.400;5.494;2022-12-11T12:06:01;14.38;;;5.75;;
47896;SDS011;39629;51.400;5.494;2022-12-11T12:11:13;13.43;;;5.63;;
47896;SDS011;39629;51.400;5.494;2022-12-11T12:16:22;17.42;;;5.80;;
47896;SDS011;39629;51.400;5.494;2022-12-11T12:21:33;13.38;;;6.13;;
47896;SDS011;39629;51.400;5.494;2022-12-11T12:26:40;14.75;;;6.15;;
47896;SDS011;39629;51.400;5.494;2022-12-11T12:31:50;12.15;;;5.25;;
47896;SDS011;39629;51.400;5.494;2022-12-11T12:37:00;12.07;;;5.18;;
47896;SDS011;39629;51.400;5.494;2022-12-11T12:42:14;13.93;;;5.65;;
47896;SDS011;39629;51.400;5.494;2022-12-11T12:47:24;11.63;;;4.32;;
47896;SDS011;39629;51.400;5.494;2022-12-11T12:57:33;11.20;;;5.22;;
47896;SDS011;39629;51.400;5.494;2022-12-11T13:02:36;11.07;;;5.30;;
47896;SDS011;39629;51.400;5.494;2022-12-11T13:07:38;13.88;;;5.80;;
47896;SDS011;39629;51.400;5.494;2022-12-11T13:12:51;14.82;;;5.97;;
47896;SDS011;39629;51.400;5.494;2022-12-11T13:17:52;13.07;;;6.00;;
47896;SDS011;39629;51.400;5.494;2022-12-11T13:22:55;14.90;;;6.38;;
47896;SDS011;39629;51.400;5.494;2022-12-11T13:28:20;9.02;;;4.28;;
47896;SDS011;39629;51.400;5.494;2022-12-11T13:33:37;10.85;;;5.20;;
47896;SDS011;39629;51.400;5.494;2022-12-11T13:38:45;11.75;;;5.15;;
47896;SDS011;39629;51.400;5.494;2022-12-11T13:43:50;13.70;;;6.30;;
47896;SDS011;39629;51.400;5.494;2022-12-11T13:48:53;13.00;;;6.00;;
47896;SDS011;39629;51.400;5.494;2022-12-11T13:54:11;10.50;;;5.07;;
47896;SDS011;39629;51.400;5.494;2022-12-11T13:59:20;10.95;;;5.07;;
47896;SDS011;39629;51.400;5.494;2022-12-11T14:04:26;13.57;;;5.85;;
47896;SDS011;39629;51.400;5.494;2022-12-11T14:09:28;9.27;;;5.00;;
47896;SDS011;39629;51.400;5.494;2022-12-11T14:14:37;14.10;;;5.65;;
47896;SDS011;39629;51.400;5.494;2022-12-11T14:19:44;12.15;;;5.72;;
47896;SDS011;39629;51.400;5.494;2022-12-11T14:24:48;12.15;;;5.45;;
47896;SDS011;39629;51.400;5.494;2022-12-11T14:29:52;12.27;;;5.20;;
47896;SDS011;39629;51.400;5.494;2022-12-11T14:34:54;11.70;;;5.50;;
47896;SDS011;39629;51.400;5.494;2022-12-11T14:39:59;11.82;;;5.07;;
47896;SDS011;39629;51.400;5.494;2022-12-11T14:45:11;11.30;;;5.50;;
47896;SDS011;39629;51.400;5.494;2022-12-11T14:50:20;10.15;;;5.13;;
47896;SDS011;39629;51.400;5.494;2022-12-11T14:55:28;11.57;;;5.30;;
47896;SDS011;39629;51.400;5.494;2022-12-11T15:00:33;10.18;;;4.78;;
47896;SDS011;39629;51.400;5.494;2022-12-11T15:05:46;9.68;;;4.82;;
47896;SDS011;39629;51.400;5.494;2022-12-11T15:11:03;9.80;;;4.68;;
47896;SDS011;39629;51.400;5.494;2022-12-11T15:16:10;9.30;;;4.82;;
47896;SDS011;39629;51.400;5.494;2022-12-11T15:21:14;11.02;;;5.80;;
47896;SDS011;39629;51.400;5.494;2022-12-11T15:26:16;12.65;;;5.80;;
47896;SDS011;39629;51.400;5.494;2022-12-11T15:31:24;11.55;;;5.68;;
47896;SDS011;39629;51.400;5.494;2022-12-11T15:36:31;11.15;;;5.70;;
47896;SDS011;39629;51.400;5.494;2022-12-11T15:41:34;10.43;;;5.22;;
47896;SDS011;39629;51.400;5.494;2022-12-11T15:46:37;10.65;;;5.07;;
47896;SDS011;39629;51.400;5.494;2022-12-11T15:51:39;12.05;;;5.50;;
47896;SDS011;39629;51.400;5.494;2022-12-11T15:56:41;12.38;;;5.80;;
47896;SDS011;39629;51.400;5.494;2022-12-11T16:01:44;11.10;;;5.30;;
47896;SDS011;39629;51.400;5.494;2022-12-11T16:06:45;12.38;;;5.22;;
47896;SDS011;39629;51.400;5.494;2022-12-11T16:11:47;13.02;;;5.57;;
47896;SDS011;39629;51.400;5.494;2022-12-11T16:16:50;12.02;;;5.40;;
47896;SDS011;39629;51.400;5.494;2022-12-11T16:21:52;11.50;;;5.70;;
47896;SDS011;39629;51.400;5.494;2022-12-11T16:26:53;11.52;;;5.15;;
47896;SDS011;39629;51.400;5.494;2022-12-11T16:31:56;13.65;;;5.65;;
47896;SDS011;39629;51.400;5.494;2022-12-11T16:36:58;12.90;;;5.00;;
47896;SDS011;39629;51.400;5.494;2022-12-11T16:42:00;11.10;;;5.65;;
47896;SDS011;39629;51.400;5.494;2022-12-11T16:47:03;11.30;;;5.28;;
47896;SDS011;39629;51.400;5.494;2022-12-11T16:52:05;10.95;;;4.97;;
47896;SDS011;39629;51.400;5.494;2022-12-11T16:57:06;14.20;;;6.85;;
47896;SDS011;39629;51.400;5.494;2022-12-11T17:02:10;17.40;;;7.38;;
47896;SDS011;39629;51.400;5.494;2022-12-11T17:07:12;71.22;;;27.02;;
47896;SDS011;39629;51.400;5.494;2022-12-11T17:12:13;19.00;;;8.73;;
47896;SDS011;39629;51.400;5.494;2022-12-11T17:17:16;26.67;;;10.10;;
47896;SDS011;39629;51.400;5.494;2022-12-11T17:22:18;17.50;;;6.55;;
47896;SDS011;39629;51.400;5.494;2022-12-11T17:27:19;20.60;;;9.65;;
47896;SDS011;39629;51.400;5.494;2022-12-11T17:32:23;20.60;;;8.38;;
47896;SDS011;39629;51.400;5.494;2022-12-11T17:37:25;17.15;;;7.85;;
47896;SDS011;39629;51.400;5.494;2022-12-11T17:42:26;15.52;;;6.60;;
47896;SDS011;39629;51.400;5.494;2022-12-11T17:47:29;15.18;;;7.13;;
47896;SDS011;39629;51.400;5.494;2022-12-11T17:52:31;14.23;;;6.75;;
47896;SDS011;39629;51.400;5.494;2022-12-11T17:57:33;16.35;;;7.70;;
47896;SDS011;39629;51.400;5.494;2022-12-11T18:02:38;14.07;;;6.87;;
47896;SDS011;39629;51.400;5.494;2022-12-11T18:07:39;14.73;;;7.15;;
47896;SDS011;39629;51.400;5.494;2022-12-11T18:12:41;24.00;;;10.52;;
47896;SDS011;39629;51.400;5.494;2022-12-11T18:17:44;16.90;;;7.78;;
47896;SDS011;39629;51.400;5.494;2022-12-11T18:22:46;16.75;;;7.38;;
47896;SDS011;39629;51.400;5.494;2022-12-11T18:27:47;16.73;;;7.38;;
47896;SDS011;39629;51.400;5.494;2022-12-11T18:32:51;16.98;;;7.97;;
47896;SDS011;39629;51.400;5.494;2022-12-11T18:37:52;18.95;;;7.75;;
47896;SDS011;39629;51.400;5.494;2022-12-11T18:42:54;17.52;;;8.27;;
47896;SDS011;39629;51.400;5.494;2022-12-11T18:47:57;19.50;;;8.60;;
47896;SDS011;39629;51.400;5.494;2022-12-11T18:52:59;18.52;;;8.07;;
47896;SDS011;39629;51.400;5.494;2022-12-11T18:58:00;16.40;;;7.57;;
47896;SDS011;39629;51.400;5.494;2022-12-11T19:03:03;17.92;;;8.65;;
47896;SDS011;39629;51.400;5.494;2022-12-11T19:08:05;17.83;;;8.50;;
47896;SDS011;39629;51.400;5.494;2022-12-11T19:13:07;18.20;;;8.40;;
47896;SDS011;39629;51.400;5.494;2022-12-11T19:18:10;17.38;;;8.35;;
47896;SDS011;39629;51.400;5.494;2022-12-11T19:23:12;18.25;;;7.03;;
47896;SDS011;39629;51.400;5.494;2022-12-11T19:28:13;16.50;;;7.10;;
47896;SDS011;39629;51.400;5.494;2022-12-11T19:33:17;19.63;;;8.70;;
47896;SDS011;39629;51.400;5.494;2022-12-11T19:38:18;17.35;;;8.15;;
47896;SDS011;39629;51.400;5.494;2022-12-11T19:43:20;22.05;;;9.85;;
47896;SDS011;39629;51.400;5.494;2022-12-11T19:48:23;18.85;;;8.90;;
47896;SDS011;39629;51.400;5.494;2022-12-11T19:53:24;23.58;;;9.85;;
47896;SDS011;39629;51.400;5.494;2022-12-11T19:58:26;21.83;;;9.48;;
47896;SDS011;39629;51.400;5.494;2022-12-11T20:03:29;19.10;;;8.50;;
47896;SDS011;39629;51.400;5.494;2022-12-11T20:08:31;21.20;;;8.85;;
47896;SDS011;39629;51.400;5.494;2022-12-11T20:13:33;18.75;;;8.23;;
47896;SDS011;39629;51.400;5.494;2022-12-11T20:18:37;21.75;;;9.50;;
47896;SDS011;39629;51.400;5.494;2022-12-11T20:23:39;17.98;;;8.80;;
47896;SDS011;39629;51.400;5.494;2022-12-11T20:28:41;20.92;;;8.48;;
47896;SDS011;39629;51.400;5.494;2022-12-11T20:33:45;19.95;;;7.88;;
47896;SDS011;39629;51.400;5.494;2022-12-11T20:38:47;16.33;;;7.57;;
47896;SDS011;39629;51.400;5.494;2022-12-11T20:43:50;18.23;;;7.63;;
47896;SDS011;39629;51.400;5.494;2022-12-11T20:48:55;16.52;;;7.60;;
47896;SDS011;39629;51.400;5.494;2022-12-11T20:53:58;19.63;;;8.88;;
47896;SDS011;39629;51.400;5.494;2022-12-11T20:59:00;19.30;;;8.48;;
47896;SDS011;39629;51.400;5.494;2022-12-11T21:04:03;27.48;;;12.77;;
47896;SDS011;39629;51.400;5.494;2022-12-11T21:09:06;33.78;;;13.80;;
47896;SDS011;39629;51.400;5.494;2022-12-11T21:14:09;26.10;;;9.98;;
47896;SDS011;39629;51.400;5.494;2022-12-11T21:19:13;20.40;;;9.15;;
47896;SDS011;39629;51.400;5.494;2022-12-11T21:24:17;24.95;;;10.75;;
47896;SDS011;39629;51.400;5.494;2022-12-11T21:29:20;22.42;;;9.90;;
47896;SDS011;39629;51.400;5.494;2022-12-11T21:34:23;20.45;;;9.68;;
47896;SDS011;39629;51.400;5.494;2022-12-11T21:39:25;22.95;;;10.20;;
47896;SDS011;39629;51.400;5.494;2022-12-11T21:44:28;20.98;;;8.98;;
47896;SDS011;39629;51.400;5.494;2022-12-11T21:49:32;18.60;;;8.43;;
47896;SDS011;39629;51.400;5.494;2022-12-11T21:54:34;26.85;;;11.10;;
47896;SDS011;39629;51.400;5.494;2022-12-11T21:59:36;20.63;;;8.88;;
47896;SDS011;39629;51.400;5.494;2022-12-11T22:04:39;21.48;;;9.00;;
47896;SDS011;39629;51.400;5.494;2022-12-11T22:09:41;16.50;;;7.78;;
47896;SDS011;39629;51.400;5.494;2022-12-11T22:14:42;20.52;;;8.95;;
47896;SDS011;39629;51.400;5.494;2022-12-11T22:19:47;19.10;;;8.75;;
47896;SDS011;39629;51.400;5.494;2022-12-11T22:24:51;17.95;;;8.20;;
47896;SDS011;39629;51.400;5.494;2022-12-11T22:29:52;20.00;;;9.05;;
47896;SDS011;39629;51.400;5.494;2022-12-11T22:34:55;20.40;;;8.73;;
47896;SDS011;39629;51.400;5.494;2022-12-11T22:39:57;17.52;;;8.05;;
47896;SDS011;39629;51.400;5.494;2022-12-11T22:44:59;15.55;;;7.50;;
47896;SDS011;39629;51.400;5.494;2022-12-11T22:50:02;18.42;;;8.15;;
47896;SDS011;39629;51.400;5.494;2022-12-11T22:55:05;17.20;;;8.10;;
47896;SDS011;39629;51.400;5.494;2022-12-11T23:00:08;16.52;;;8.40;;
47896;SDS011;39629;51.400;5.494;2022-12-11T23:05:13;19.77;;;8.93;;
47896;SDS011;39629;51.400;5.494;2022-12-11T23:10:16;20.33;;;8.73;;
47896;SDS011;39629;51.400;5.494;2022-12-11T23:15:17;19.52;;;8.70;;
47896;SDS011;39629;51.400;5.494;2022-12-11T23:20:20;20.58;;;8.23;;
47896;SDS011;39629;51.400;5.494;2022-12-11T23:25:22;19.67;;;9.05;;
47896;SDS011;39629;51.400;5.494;2022-12-11T23:30:23;17.00;;;7.97;;
47896;SDS011;39629;51.400;5.494;2022-12-11T23:35:26;17.58;;;8.63;;
47896;SDS011;39629;51.400;5.494;2022-12-11T23:40:28;19.70;;;8.13;;
47896;SDS011;39629;51.400;5.494;2022-12-11T23:45:30;17.92;;;8.55;;
47896;SDS011;39629;51.400;5.494;2022-12-11T23:50:33;20.35;;;8.38;;
47896;SDS011;39629;51.400;5.494;2022-12-11T23:55:34;19.42;;;9.13;;
